sensor_id;sensor_type;location;lat;lon;timestamp;P1;durP1;ratioP1;P2;durP2;ratioP2
21777;SDS011;11050;52.222;20.916;2022-12-07T00:01:24;55.20;;;24.73;;
21777;SDS011;11050;52.222;20.916;2022-12-07T00:03:53;48.73;;;24.63;;
21777;SDS011;11050;52.222;20.916;2022-12-07T00:06:25;54.37;;;23.97;;
21777;SDS011;11050;52.222;20.916;2022-12-07T00:08:51;53.57;;;25.70;;
21777;SDS011;11050;52.222;20.916;2022-12-07T00:11:21;60.63;;;27.40;;
21777;SDS011;11050;52.222;20.916;2022-12-07T00:13:52;56.27;;;26.30;;
21777;SDS011;11050;52.222;20.916;2022-12-07T00:16:20;60.20;;;27.90;;
21777;SDS011;11050;52.222;20.916;2022-12-07T00:18:49;62.10;;;27.67;;
21777;SDS011;11050;52.222;20.916;2022-12-07T00:21:16;67.37;;;30.73;;
21777;SDS011;11050;52.222;20.916;2022-12-07T00:23:51;60.40;;;28.47;;
21777;SDS011;11050;52.222;20.916;2022-12-07T00:26:20;62.57;;;30.10;;
21777;SDS011;11050;52.222;20.916;2022-12-07T00:28:48;63.17;;;30.47;;
21777;SDS011;11050;52.222;20.916;2022-12-07T00:31:25;68.73;;;28.33;;
21777;SDS011;11050;52.222;20.916;2022-12-07T00:34:01;66.63;;;28.70;;
21777;SDS011;11050;52.222;20.916;2022-12-07T00:36:27;62.47;;;28.27;;
21777;SDS011;11050;52.222;20.916;2022-12-07T00:38:57;68.50;;;30.70;;
21777;SDS011;11050;52.222;20.916;2022-12-07T00:41:26;66.90;;;31.37;;
21777;SDS011;11050;52.222;20.916;2022-12-07T00:43:54;68.33;;;32.10;;
21777;SDS011;11050;52.222;20.916;2022-12-07T00:46:20;66.77;;;29.57;;
21777;SDS011;11050;52.222;20.916;2022-12-07T00:48:48;78.17;;;32.20;;
21777;SDS011;11050;52.222;20.916;2022-12-07T00:51:15;65.10;;;30.57;;
21777;SDS011;11050;52.222;20.916;2022-12-07T00:53:44;74.80;;;33.43;;
21777;SDS011;11050;52.222;20.916;2022-12-07T00:56:12;82.90;;;35.93;;
21777;SDS011;11050;52.222;20.916;2022-12-07T00:58:40;82.77;;;37.23;;
21777;SDS011;11050;52.222;20.916;2022-12-07T01:01:07;69.23;;;28.97;;
21777;SDS011;11050;52.222;20.916;2022-12-07T01:03:35;73.40;;;33.57;;
21777;SDS011;11050;52.222;20.916;2022-12-07T01:06:02;78.07;;;33.87;;
21777;SDS011;11050;52.222;20.916;2022-12-07T01:08:29;74.47;;;33.87;;
21777;SDS011;11050;52.222;20.916;2022-12-07T01:11:02;69.47;;;29.77;;
21777;SDS011;11050;52.222;20.916;2022-12-07T01:13:33;65.40;;;31.83;;
21777;SDS011;11050;52.222;20.916;2022-12-07T01:16:01;65.67;;;26.97;;
21777;SDS011;11050;52.222;20.916;2022-12-07T01:18:30;55.07;;;25.73;;
21777;SDS011;11050;52.222;20.916;2022-12-07T01:21:04;64.87;;;28.47;;
21777;SDS011;11050;52.222;20.916;2022-12-07T01:23:34;58.90;;;27.13;;
21777;SDS011;11050;52.222;20.916;2022-12-07T01:26:02;56.10;;;27.50;;
21777;SDS011;11050;52.222;20.916;2022-12-07T01:28:32;53.13;;;25.33;;
21777;SDS011;11050;52.222;20.916;2022-12-07T01:31:05;53.97;;;26.33;;
21777;SDS011;11050;52.222;20.916;2022-12-07T01:33:39;52.20;;;23.63;;
21777;SDS011;11050;52.222;20.916;2022-12-07T01:38:41;48.17;;;20.13;;
21777;SDS011;11050;52.222;20.916;2022-12-07T01:41:08;45.97;;;21.47;;
21777;SDS011;11050;52.222;20.916;2022-12-07T01:43:35;34.50;;;18.40;;
21777;SDS011;11050;52.222;20.916;2022-12-07T01:46:02;40.53;;;19.67;;
21777;SDS011;11050;52.222;20.916;2022-12-07T01:48:39;39.77;;;19.07;;
21777;SDS011;11050;52.222;20.916;2022-12-07T01:51:10;37.13;;;17.07;;
21777;SDS011;11050;52.222;20.916;2022-12-07T01:53:41;37.27;;;17.53;;
21777;SDS011;11050;52.222;20.916;2022-12-07T01:56:11;29.60;;;15.87;;
21777;SDS011;11050;52.222;20.916;2022-12-07T01:58:43;32.17;;;15.97;;
21777;SDS011;11050;52.222;20.916;2022-12-07T02:01:10;30.47;;;15.23;;
21777;SDS011;11050;52.222;20.916;2022-12-07T02:03:37;30.77;;;15.53;;
21777;SDS011;11050;52.222;20.916;2022-12-07T02:06:07;23.23;;;13.30;;
21777;SDS011;11050;52.222;20.916;2022-12-07T02:08:35;25.70;;;14.13;;
21777;SDS011;11050;52.222;20.916;2022-12-07T02:11:01;22.43;;;11.13;;
21777;SDS011;11050;52.222;20.916;2022-12-07T02:13:31;22.20;;;11.93;;
21777;SDS011;11050;52.222;20.916;2022-12-07T02:16:20;24.10;;;11.93;;
21777;SDS011;11050;52.222;20.916;2022-12-07T02:26:19;17.77;;;10.03;;
21777;SDS011;11050;52.222;20.916;2022-12-07T02:31:55;20.67;;;10.70;;
21777;SDS011;11050;52.222;20.916;2022-12-07T02:37:49;19.43;;;9.60;;
21777;SDS011;11050;52.222;20.916;2022-12-07T02:43:29;22.17;;;10.63;;
21777;SDS011;11050;52.222;20.916;2022-12-07T02:46:08;20.73;;;11.57;;
21777;SDS011;11050;52.222;20.916;2022-12-07T02:48:39;20.77;;;11.07;;
21777;SDS011;11050;52.222;20.916;2022-12-07T02:51:08;18.07;;;11.27;;
21777;SDS011;11050;52.222;20.916;2022-12-07T02:53:35;21.10;;;11.33;;
21777;SDS011;11050;52.222;20.916;2022-12-07T03:05:28;24.10;;;13.17;;
21777;SDS011;11050;52.222;20.916;2022-12-07T03:08:23;28.63;;;13.87;;
21777;SDS011;11050;52.222;20.916;2022-12-07T03:11:23;26.63;;;12.37;;
21777;SDS011;11050;52.222;20.916;2022-12-07T03:14:02;24.70;;;13.37;;
21777;SDS011;11050;52.222;20.916;2022-12-07T03:16:38;28.37;;;15.77;;
21777;SDS011;11050;52.222;20.916;2022-12-07T03:19:19;25.83;;;13.47;;
21777;SDS011;11050;52.222;20.916;2022-12-07T03:21:49;23.03;;;12.93;;
21777;SDS011;11050;52.222;20.916;2022-12-07T03:24:31;21.00;;;11.50;;
21777;SDS011;11050;52.222;20.916;2022-12-07T03:27:06;17.07;;;10.57;;
21777;SDS011;11050;52.222;20.916;2022-12-07T03:29:50;16.90;;;8.23;;
21777;SDS011;11050;52.222;20.916;2022-12-07T03:32:30;14.57;;;8.10;;
21777;SDS011;11050;52.222;20.916;2022-12-07T03:35:21;16.43;;;8.77;;
21777;SDS011;11050;52.222;20.916;2022-12-07T03:38:11;12.67;;;7.20;;
21777;SDS011;11050;52.222;20.916;2022-12-07T03:43:33;13.00;;;8.60;;
21777;SDS011;11050;52.222;20.916;2022-12-07T03:51:45;13.97;;;9.00;;
21777;SDS011;11050;52.222;20.916;2022-12-07T03:54:36;14.73;;;8.73;;
21777;SDS011;11050;52.222;20.916;2022-12-07T03:57:41;13.87;;;7.80;;
21777;SDS011;11050;52.222;20.916;2022-12-07T04:00:12;16.03;;;8.73;;
21777;SDS011;11050;52.222;20.916;2022-12-07T04:02:38;14.33;;;8.40;;
21777;SDS011;11050;52.222;20.916;2022-12-07T04:05:06;14.13;;;8.50;;
21777;SDS011;11050;52.222;20.916;2022-12-07T04:07:33;10.63;;;6.37;;
21777;SDS011;11050;52.222;20.916;2022-12-07T04:09:58;14.80;;;7.87;;
21777;SDS011;11050;52.222;20.916;2022-12-07T04:12:24;13.30;;;7.90;;
21777;SDS011;11050;52.222;20.916;2022-12-07T04:14:50;14.03;;;7.47;;
21777;SDS011;11050;52.222;20.916;2022-12-07T04:17:15;14.17;;;7.33;;
21777;SDS011;11050;52.222;20.916;2022-12-07T04:19:41;12.67;;;7.40;;
21777;SDS011;11050;52.222;20.916;2022-12-07T04:22:07;16.37;;;7.63;;
21777;SDS011;11050;52.222;20.916;2022-12-07T04:24:33;13.47;;;7.73;;
21777;SDS011;11050;52.222;20.916;2022-12-07T04:26:59;10.93;;;6.47;;
21777;SDS011;11050;52.222;20.916;2022-12-07T04:29:25;16.43;;;7.70;;
21777;SDS011;11050;52.222;20.916;2022-12-07T04:31:52;12.17;;;7.10;;
21777;SDS011;11050;52.222;20.916;2022-12-07T04:34:18;13.47;;;8.40;;
21777;SDS011;11050;52.222;20.916;2022-12-07T04:36:44;13.67;;;7.77;;
21777;SDS011;11050;52.222;20.916;2022-12-07T04:39:23;13.23;;;7.60;;
21777;SDS011;11050;52.222;20.916;2022-12-07T04:41:52;16.33;;;8.60;;
21777;SDS011;11050;52.222;20.916;2022-12-07T04:44:19;12.80;;;8.20;;
21777;SDS011;11050;52.222;20.916;2022-12-07T04:46:46;15.53;;;8.03;;
21777;SDS011;11050;52.222;20.916;2022-12-07T04:49:12;14.93;;;8.73;;
21777;SDS011;11050;52.222;20.916;2022-12-07T04:51:39;12.10;;;8.00;;
21777;SDS011;11050;52.222;20.916;2022-12-07T04:54:06;14.03;;;7.83;;
21777;SDS011;11050;52.222;20.916;2022-12-07T04:56:31;13.40;;;7.87;;
21777;SDS011;11050;52.222;20.916;2022-12-07T04:58:59;16.60;;;8.30;;
21777;SDS011;11050;52.222;20.916;2022-12-07T05:01:25;13.47;;;8.43;;
21777;SDS011;11050;52.222;20.916;2022-12-07T05:03:51;13.87;;;7.97;;
21777;SDS011;11050;52.222;20.916;2022-12-07T05:06:17;14.27;;;8.73;;
21777;SDS011;11050;52.222;20.916;2022-12-07T05:08:43;13.87;;;7.97;;
21777;SDS011;11050;52.222;20.916;2022-12-07T05:11:09;14.33;;;8.47;;
21777;SDS011;11050;52.222;20.916;2022-12-07T05:13:59;13.27;;;7.73;;
21777;SDS011;11050;52.222;20.916;2022-12-07T05:16:26;14.50;;;8.47;;
21777;SDS011;11050;52.222;20.916;2022-12-07T05:18:52;11.47;;;7.33;;
21777;SDS011;11050;52.222;20.916;2022-12-07T05:21:18;13.03;;;8.50;;
21777;SDS011;11050;52.222;20.916;2022-12-07T05:23:44;16.27;;;9.60;;
21777;SDS011;11050;52.222;20.916;2022-12-07T05:26:10;15.93;;;8.80;;
21777;SDS011;11050;52.222;20.916;2022-12-07T05:28:36;18.57;;;10.23;;
21777;SDS011;11050;52.222;20.916;2022-12-07T05:31:01;17.87;;;10.17;;
21777;SDS011;11050;52.222;20.916;2022-12-07T05:33:28;25.63;;;13.03;;
21777;SDS011;11050;52.222;20.916;2022-12-07T05:35:54;15.47;;;9.53;;
21777;SDS011;11050;52.222;20.916;2022-12-07T05:38:19;21.67;;;10.63;;
21777;SDS011;11050;52.222;20.916;2022-12-07T05:40:45;22.10;;;11.63;;
21777;SDS011;11050;52.222;20.916;2022-12-07T05:43:11;22.23;;;11.47;;
21777;SDS011;11050;52.222;20.916;2022-12-07T05:45:36;18.33;;;9.60;;
21777;SDS011;11050;52.222;20.916;2022-12-07T05:48:02;15.83;;;9.43;;
21777;SDS011;11050;52.222;20.916;2022-12-07T05:50:28;16.67;;;9.70;;
21777;SDS011;11050;52.222;20.916;2022-12-07T05:52:54;18.23;;;9.20;;
21777;SDS011;11050;52.222;20.916;2022-12-07T05:55:20;15.87;;;8.90;;
21777;SDS011;11050;52.222;20.916;2022-12-07T05:57:45;16.37;;;8.30;;
21777;SDS011;11050;52.222;20.916;2022-12-07T06:00:31;15.80;;;8.77;;
21777;SDS011;11050;52.222;20.916;2022-12-07T06:02:57;18.27;;;10.47;;
21777;SDS011;11050;52.222;20.916;2022-12-07T06:05:23;17.23;;;8.97;;
21777;SDS011;11050;52.222;20.916;2022-12-07T06:07:49;16.20;;;9.67;;
21777;SDS011;11050;52.222;20.916;2022-12-07T06:10:15;16.40;;;9.73;;
21777;SDS011;11050;52.222;20.916;2022-12-07T06:12:40;15.83;;;8.77;;
21777;SDS011;11050;52.222;20.916;2022-12-07T06:15:08;17.20;;;9.73;;
21777;SDS011;11050;52.222;20.916;2022-12-07T06:17:35;16.33;;;8.20;;
21777;SDS011;11050;52.222;20.916;2022-12-07T06:20:02;12.80;;;7.53;;
21777;SDS011;11050;52.222;20.916;2022-12-07T06:22:29;15.00;;;9.10;;
21777;SDS011;11050;52.222;20.916;2022-12-07T06:24:54;15.90;;;8.50;;
21777;SDS011;11050;52.222;20.916;2022-12-07T06:27:20;14.97;;;8.83;;
21777;SDS011;11050;52.222;20.916;2022-12-07T06:29:46;17.07;;;9.63;;
21777;SDS011;11050;52.222;20.916;2022-12-07T06:32:11;17.80;;;10.27;;
21777;SDS011;11050;52.222;20.916;2022-12-07T06:34:37;17.90;;;9.93;;
21777;SDS011;11050;52.222;20.916;2022-12-07T06:37:03;17.67;;;10.03;;
21777;SDS011;11050;52.222;20.916;2022-12-07T06:39:30;18.53;;;10.23;;
21777;SDS011;11050;52.222;20.916;2022-12-07T06:41:56;18.83;;;10.33;;
21777;SDS011;11050;52.222;20.916;2022-12-07T06:44:22;22.23;;;10.77;;
21777;SDS011;11050;52.222;20.916;2022-12-07T06:46:49;21.50;;;10.77;;
21777;SDS011;11050;52.222;20.916;2022-12-07T06:49:16;21.80;;;11.60;;
21777;SDS011;11050;52.222;20.916;2022-12-07T06:51:42;20.03;;;10.40;;
21777;SDS011;11050;52.222;20.916;2022-12-07T06:54:09;21.93;;;11.03;;
21777;SDS011;11050;52.222;20.916;2022-12-07T06:56:37;16.90;;;9.13;;
21777;SDS011;11050;52.222;20.916;2022-12-07T06:59:03;18.83;;;10.13;;
21777;SDS011;11050;52.222;20.916;2022-12-07T07:01:31;20.83;;;11.17;;
21777;SDS011;11050;52.222;20.916;2022-12-07T07:03:59;18.30;;;9.73;;
21777;SDS011;11050;52.222;20.916;2022-12-07T07:06:25;17.33;;;9.60;;
21777;SDS011;11050;52.222;20.916;2022-12-07T07:08:52;20.53;;;10.67;;
21777;SDS011;11050;52.222;20.916;2022-12-07T07:11:18;20.93;;;11.23;;
21777;SDS011;11050;52.222;20.916;2022-12-07T07:13:44;18.23;;;10.17;;
21777;SDS011;11050;52.222;20.916;2022-12-07T07:16:10;21.20;;;11.77;;
21777;SDS011;11050;52.222;20.916;2022-12-07T07:18:36;25.60;;;11.73;;
21777;SDS011;11050;52.222;20.916;2022-12-07T07:21:02;22.13;;;10.70;;
21777;SDS011;11050;52.222;20.916;2022-12-07T07:23:29;17.13;;;9.83;;
21777;SDS011;11050;52.222;20.916;2022-12-07T07:25:55;18.53;;;10.33;;
21777;SDS011;11050;52.222;20.916;2022-12-07T07:28:21;16.80;;;9.60;;
21777;SDS011;11050;52.222;20.916;2022-12-07T07:30:47;18.80;;;8.90;;
21777;SDS011;11050;52.222;20.916;2022-12-07T07:33:13;16.93;;;9.10;;
21777;SDS011;11050;52.222;20.916;2022-12-07T07:35:39;13.37;;;7.10;;
21777;SDS011;11050;52.222;20.916;2022-12-07T07:38:05;16.93;;;8.37;;
21777;SDS011;11050;52.222;20.916;2022-12-07T07:40:31;15.17;;;8.83;;
21777;SDS011;11050;52.222;20.916;2022-12-07T07:42:57;16.37;;;9.00;;
21777;SDS011;11050;52.222;20.916;2022-12-07T07:45:23;15.43;;;8.73;;
21777;SDS011;11050;52.222;20.916;2022-12-07T07:47:51;18.10;;;9.97;;
21777;SDS011;11050;52.222;20.916;2022-12-07T07:50:18;15.07;;;8.40;;
21777;SDS011;11050;52.222;20.916;2022-12-07T07:52:44;17.90;;;10.00;;
21777;SDS011;11050;52.222;20.916;2022-12-07T07:55:10;14.03;;;8.00;;
21777;SDS011;11050;52.222;20.916;2022-12-07T07:57:37;16.73;;;8.73;;
21777;SDS011;11050;52.222;20.916;2022-12-07T08:00:05;16.23;;;8.87;;
21777;SDS011;11050;52.222;20.916;2022-12-07T08:02:41;12.30;;;7.33;;
21777;SDS011;11050;52.222;20.916;2022-12-07T08:05:08;13.37;;;7.97;;
21777;SDS011;11050;52.222;20.916;2022-12-07T08:07:36;17.33;;;6.30;;
21777;SDS011;11050;52.222;20.916;2022-12-07T08:10:01;15.23;;;8.53;;
21777;SDS011;11050;52.222;20.916;2022-12-07T08:12:28;14.30;;;8.70;;
21777;SDS011;11050;52.222;20.916;2022-12-07T08:14:54;23.23;;;8.90;;
21777;SDS011;11050;52.222;20.916;2022-12-07T08:17:19;20.97;;;11.27;;
21777;SDS011;11050;52.222;20.916;2022-12-07T08:19:45;22.63;;;10.00;;
21777;SDS011;11050;52.222;20.916;2022-12-07T08:22:11;20.17;;;9.97;;
21777;SDS011;11050;52.222;20.916;2022-12-07T08:24:36;26.47;;;11.37;;
21777;SDS011;11050;52.222;20.916;2022-12-07T08:27:02;25.00;;;10.97;;
21777;SDS011;11050;52.222;20.916;2022-12-07T08:29:28;17.57;;;9.63;;
21777;SDS011;11050;52.222;20.916;2022-12-07T08:31:54;21.43;;;9.83;;
21777;SDS011;11050;52.222;20.916;2022-12-07T08:34:20;23.90;;;11.73;;
21777;SDS011;11050;52.222;20.916;2022-12-07T08:36:46;22.07;;;11.23;;
21777;SDS011;11050;52.222;20.916;2022-12-07T08:39:12;29.80;;;13.97;;
21777;SDS011;11050;52.222;20.916;2022-12-07T08:41:38;19.77;;;10.20;;
21777;SDS011;11050;52.222;20.916;2022-12-07T08:44:03;28.30;;;13.00;;
21777;SDS011;11050;52.222;20.916;2022-12-07T08:46:40;23.67;;;10.87;;
21777;SDS011;11050;52.222;20.916;2022-12-07T08:49:20;26.93;;;11.50;;
21777;SDS011;11050;52.222;20.916;2022-12-07T08:52:02;26.80;;;12.00;;
21777;SDS011;11050;52.222;20.916;2022-12-07T08:54:30;27.37;;;12.33;;
21777;SDS011;11050;52.222;20.916;2022-12-07T08:57:02;25.00;;;11.70;;
21777;SDS011;11050;52.222;20.916;2022-12-07T08:59:29;22.53;;;11.40;;
21777;SDS011;11050;52.222;20.916;2022-12-07T09:01:55;28.27;;;13.80;;
21777;SDS011;11050;52.222;20.916;2022-12-07T09:04:21;29.47;;;13.60;;
21777;SDS011;11050;52.222;20.916;2022-12-07T09:06:47;25.87;;;13.80;;
21777;SDS011;11050;52.222;20.916;2022-12-07T09:09:13;19.87;;;10.20;;
21777;SDS011;11050;52.222;20.916;2022-12-07T09:11:40;31.23;;;13.87;;
21777;SDS011;11050;52.222;20.916;2022-12-07T09:14:06;30.00;;;14.93;;
21777;SDS011;11050;52.222;20.916;2022-12-07T09:16:31;30.67;;;14.83;;
21777;SDS011;11050;52.222;20.916;2022-12-07T09:18:57;34.63;;;15.63;;
21777;SDS011;11050;52.222;20.916;2022-12-07T09:21:23;30.30;;;14.03;;
21777;SDS011;11050;52.222;20.916;2022-12-07T09:23:49;27.10;;;13.97;;
21777;SDS011;11050;52.222;20.916;2022-12-07T09:26:14;31.90;;;14.33;;
21777;SDS011;11050;52.222;20.916;2022-12-07T09:28:40;27.33;;;12.27;;
21777;SDS011;11050;52.222;20.916;2022-12-07T09:31:06;29.67;;;14.60;;
21777;SDS011;11050;52.222;20.916;2022-12-07T09:33:32;29.23;;;14.73;;
21777;SDS011;11050;52.222;20.916;2022-12-07T09:35:58;29.23;;;13.80;;
21777;SDS011;11050;52.222;20.916;2022-12-07T09:38:23;25.40;;;12.70;;
21777;SDS011;11050;52.222;20.916;2022-12-07T09:40:51;33.90;;;14.60;;
21777;SDS011;11050;52.222;20.916;2022-12-07T09:43:20;32.53;;;13.80;;
21777;SDS011;11050;52.222;20.916;2022-12-07T09:45:50;26.83;;;13.63;;
21777;SDS011;11050;52.222;20.916;2022-12-07T09:48:20;32.10;;;13.90;;
21777;SDS011;11050;52.222;20.916;2022-12-07T09:53:45;28.27;;;11.87;;
21777;SDS011;11050;52.222;20.916;2022-12-07T09:56:13;26.37;;;12.03;;
21777;SDS011;11050;52.222;20.916;2022-12-07T09:58:41;29.60;;;12.67;;
21777;SDS011;11050;52.222;20.916;2022-12-07T10:03:37;22.97;;;10.83;;
21777;SDS011;11050;52.222;20.916;2022-12-07T10:06:10;25.10;;;12.53;;
21777;SDS011;11050;52.222;20.916;2022-12-07T10:08:37;20.47;;;9.20;;
21777;SDS011;11050;52.222;20.916;2022-12-07T10:11:03;24.93;;;12.27;;
21777;SDS011;11050;52.222;20.916;2022-12-07T10:13:39;27.00;;;12.43;;
21777;SDS011;11050;52.222;20.916;2022-12-07T10:19:20;26.30;;;12.50;;
21777;SDS011;11050;52.222;20.916;2022-12-07T10:24:39;23.27;;;12.40;;
21777;SDS011;11050;52.222;20.916;2022-12-07T10:27:30;22.37;;;11.27;;
21777;SDS011;11050;52.222;20.916;2022-12-07T10:29:57;24.77;;;11.27;;
21777;SDS011;11050;52.222;20.916;2022-12-07T10:32:31;25.67;;;12.00;;
21777;SDS011;11050;52.222;20.916;2022-12-07T10:37:51;21.40;;;10.87;;
21777;SDS011;11050;52.222;20.916;2022-12-07T10:40:40;22.90;;;12.03;;
21777;SDS011;11050;52.222;20.916;2022-12-07T10:43:06;22.00;;;11.13;;
21777;SDS011;11050;52.222;20.916;2022-12-07T10:48:21;22.83;;;11.13;;
21777;SDS011;11050;52.222;20.916;2022-12-07T10:51:10;20.60;;;12.03;;
21777;SDS011;11050;52.222;20.916;2022-12-07T10:54:22;22.07;;;11.80;;
21777;SDS011;11050;52.222;20.916;2022-12-07T11:00:45;19.40;;;11.17;;
21777;SDS011;11050;52.222;20.916;2022-12-07T11:07:06;19.23;;;11.57;;
21777;SDS011;11050;52.222;20.916;2022-12-07T11:38:49;24.77;;;13.00;;
21777;SDS011;11050;52.222;20.916;2022-12-07T11:41:24;24.47;;;13.67;;
21777;SDS011;11050;52.222;20.916;2022-12-07T11:44:02;24.70;;;14.00;;
21777;SDS011;11050;52.222;20.916;2022-12-07T11:46:44;27.43;;;15.27;;
21777;SDS011;11050;52.222;20.916;2022-12-07T11:50:01;26.73;;;13.97;;
21777;SDS011;11050;52.222;20.916;2022-12-07T11:52:39;21.23;;;11.70;;
21777;SDS011;11050;52.222;20.916;2022-12-07T11:55:18;24.43;;;13.87;;
21777;SDS011;11050;52.222;20.916;2022-12-07T11:58:20;23.60;;;12.60;;
21777;SDS011;11050;52.222;20.916;2022-12-07T12:04:14;23.47;;;11.17;;
21777;SDS011;11050;52.222;20.916;2022-12-07T12:07:12;16.93;;;10.80;;
21777;SDS011;11050;52.222;20.916;2022-12-07T12:18:10;18.03;;;11.00;;
21777;SDS011;11050;52.222;20.916;2022-12-07T12:21:09;26.93;;;13.83;;
21777;SDS011;11050;52.222;20.916;2022-12-07T12:23:45;21.40;;;12.60;;
21777;SDS011;11050;52.222;20.916;2022-12-07T12:27:20;24.43;;;12.83;;
21777;SDS011;11050;52.222;20.916;2022-12-07T12:29:50;18.50;;;10.83;;
21777;SDS011;11050;52.222;20.916;2022-12-07T12:32:20;21.93;;;11.37;;
21777;SDS011;11050;52.222;20.916;2022-12-07T12:40:56;16.27;;;10.03;;
21777;SDS011;11050;52.222;20.916;2022-12-07T12:43:42;21.67;;;13.37;;
21777;SDS011;11050;52.222;20.916;2022-12-07T12:48:55;26.37;;;14.40;;
21777;SDS011;11050;52.222;20.916;2022-12-07T12:51:55;24.07;;;14.30;;
21777;SDS011;11050;52.222;20.916;2022-12-07T12:57:33;23.67;;;11.93;;
21777;SDS011;11050;52.222;20.916;2022-12-07T13:00:15;19.23;;;11.47;;
21777;SDS011;11050;52.222;20.916;2022-12-07T13:02:49;21.20;;;12.03;;
21777;SDS011;11050;52.222;20.916;2022-12-07T13:05:20;20.10;;;11.20;;
21777;SDS011;11050;52.222;20.916;2022-12-07T13:10:34;16.03;;;9.23;;
21777;SDS011;11050;52.222;20.916;2022-12-07T13:29:11;13.87;;;8.37;;
21777;SDS011;11050;52.222;20.916;2022-12-07T13:31:52;17.93;;;9.57;;
21777;SDS011;11050;52.222;20.916;2022-12-07T13:36:58;17.67;;;10.57;;
21777;SDS011;11050;52.222;20.916;2022-12-07T13:39:54;18.73;;;10.70;;
21777;SDS011;11050;52.222;20.916;2022-12-07T13:42:32;18.33;;;9.90;;
21777;SDS011;11050;52.222;20.916;2022-12-07T13:45:01;20.47;;;11.30;;
21777;SDS011;11050;52.222;20.916;2022-12-07T13:48:24;18.57;;;11.17;;
21777;SDS011;11050;52.222;20.916;2022-12-07T13:50:58;20.27;;;11.93;;
21777;SDS011;11050;52.222;20.916;2022-12-07T13:53:26;21.30;;;12.80;;
21777;SDS011;11050;52.222;20.916;2022-12-07T13:55:55;22.53;;;12.27;;
21777;SDS011;11050;52.222;20.916;2022-12-07T13:58:25;24.93;;;14.50;;
21777;SDS011;11050;52.222;20.916;2022-12-07T14:00:57;25.30;;;14.93;;
21777;SDS011;11050;52.222;20.916;2022-12-07T14:03:31;26.00;;;15.00;;
21777;SDS011;11050;52.222;20.916;2022-12-07T14:08:42;22.37;;;12.97;;
21777;SDS011;11050;52.222;20.916;2022-12-07T14:11:10;23.87;;;14.40;;
21777;SDS011;11050;52.222;20.916;2022-12-07T14:13:50;16.47;;;10.30;;
21777;SDS011;11050;52.222;20.916;2022-12-07T14:16:18;22.90;;;13.60;;
21777;SDS011;11050;52.222;20.916;2022-12-07T14:19:01;25.93;;;15.50;;
21777;SDS011;11050;52.222;20.916;2022-12-07T14:21:30;27.90;;;15.47;;
21777;SDS011;11050;52.222;20.916;2022-12-07T14:24:18;28.37;;;16.70;;
21777;SDS011;11050;52.222;20.916;2022-12-07T14:26:48;25.93;;;14.80;;
21777;SDS011;11050;52.222;20.916;2022-12-07T14:29:48;28.27;;;17.83;;
21777;SDS011;11050;52.222;20.916;2022-12-07T14:37:35;25.40;;;16.10;;
21777;SDS011;11050;52.222;20.916;2022-12-07T14:40:02;24.93;;;14.20;;
21777;SDS011;11050;52.222;20.916;2022-12-07T14:42:29;28.17;;;16.23;;
21777;SDS011;11050;52.222;20.916;2022-12-07T14:44:59;26.57;;;15.73;;
21777;SDS011;11050;52.222;20.916;2022-12-07T14:47:25;29.27;;;15.77;;
21777;SDS011;11050;52.222;20.916;2022-12-07T14:49:52;30.70;;;16.93;;
21777;SDS011;11050;52.222;20.916;2022-12-07T14:52:22;32.57;;;17.83;;
21777;SDS011;11050;52.222;20.916;2022-12-07T14:54:55;32.43;;;18.57;;
21777;SDS011;11050;52.222;20.916;2022-12-07T14:57:21;32.33;;;18.00;;
21777;SDS011;11050;52.222;20.916;2022-12-07T14:59:47;32.03;;;18.27;;
21777;SDS011;11050;52.222;20.916;2022-12-07T15:02:13;33.93;;;19.30;;
21777;SDS011;11050;52.222;20.916;2022-12-07T15:04:40;36.07;;;18.83;;
21777;SDS011;11050;52.222;20.916;2022-12-07T15:07:09;28.17;;;15.97;;
21777;SDS011;11050;52.222;20.916;2022-12-07T15:09:44;31.10;;;17.00;;
21777;SDS011;11050;52.222;20.916;2022-12-07T15:12:11;32.33;;;16.20;;
21777;SDS011;11050;52.222;20.916;2022-12-07T15:14:37;28.47;;;15.90;;
21777;SDS011;11050;52.222;20.916;2022-12-07T15:17:02;28.17;;;16.43;;
21777;SDS011;11050;52.222;20.916;2022-12-07T15:19:28;26.67;;;16.20;;
21777;SDS011;11050;52.222;20.916;2022-12-07T15:21:54;27.17;;;15.17;;
21777;SDS011;11050;52.222;20.916;2022-12-07T15:24:20;24.33;;;15.50;;
21777;SDS011;11050;52.222;20.916;2022-12-07T15:26:46;25.30;;;14.77;;
21777;SDS011;11050;52.222;20.916;2022-12-07T15:29:12;28.73;;;15.77;;
21777;SDS011;11050;52.222;20.916;2022-12-07T15:31:39;28.70;;;15.87;;
21777;SDS011;11050;52.222;20.916;2022-12-07T15:34:05;28.07;;;14.87;;
21777;SDS011;11050;52.222;20.916;2022-12-07T15:36:32;27.57;;;15.67;;
21777;SDS011;11050;52.222;20.916;2022-12-07T15:38:59;26.13;;;14.67;;
21777;SDS011;11050;52.222;20.916;2022-12-07T15:41:25;22.27;;;13.03;;
21777;SDS011;11050;52.222;20.916;2022-12-07T15:43:51;26.93;;;14.77;;
21777;SDS011;11050;52.222;20.916;2022-12-07T15:46:36;26.93;;;15.17;;
21777;SDS011;11050;52.222;20.916;2022-12-07T15:49:07;29.07;;;15.77;;
21777;SDS011;11050;52.222;20.916;2022-12-07T15:51:40;29.83;;;16.17;;
21777;SDS011;11050;52.222;20.916;2022-12-07T15:54:09;28.20;;;16.40;;
21777;SDS011;11050;52.222;20.916;2022-12-07T15:56:47;27.40;;;14.77;;
21777;SDS011;11050;52.222;20.916;2022-12-07T15:59:13;29.33;;;15.50;;
21777;SDS011;11050;52.222;20.916;2022-12-07T16:01:40;24.23;;;14.00;;
21777;SDS011;11050;52.222;20.916;2022-12-07T16:04:06;30.27;;;16.23;;
21777;SDS011;11050;52.222;20.916;2022-12-07T16:06:32;31.37;;;16.87;;
21777;SDS011;11050;52.222;20.916;2022-12-07T16:08:57;24.77;;;14.33;;
21777;SDS011;11050;52.222;20.916;2022-12-07T16:11:23;31.47;;;17.93;;
21777;SDS011;11050;52.222;20.916;2022-12-07T16:13:49;28.03;;;14.57;;
21777;SDS011;11050;52.222;20.916;2022-12-07T16:16:16;31.43;;;15.70;;
21777;SDS011;11050;52.222;20.916;2022-12-07T16:18:45;27.93;;;15.47;;
21777;SDS011;11050;52.222;20.916;2022-12-07T16:21:12;32.83;;;16.93;;
21777;SDS011;11050;52.222;20.916;2022-12-07T16:23:39;28.57;;;16.77;;
21777;SDS011;11050;52.222;20.916;2022-12-07T16:26:06;26.80;;;14.77;;
21777;SDS011;11050;52.222;20.916;2022-12-07T16:28:41;27.17;;;15.57;;
21777;SDS011;11050;52.222;20.916;2022-12-07T16:31:12;26.40;;;14.23;;
21777;SDS011;11050;52.222;20.916;2022-12-07T16:33:40;38.17;;;21.60;;
21777;SDS011;11050;52.222;20.916;2022-12-07T16:36:09;30.20;;;16.77;;
21777;SDS011;11050;52.222;20.916;2022-12-07T16:38:41;34.67;;;16.07;;
21777;SDS011;11050;52.222;20.916;2022-12-07T16:41:08;28.77;;;16.90;;
21777;SDS011;11050;52.222;20.916;2022-12-07T16:43:34;27.57;;;15.90;;
21777;SDS011;11050;52.222;20.916;2022-12-07T16:46:00;28.47;;;16.13;;
21777;SDS011;11050;52.222;20.916;2022-12-07T16:48:27;30.00;;;16.07;;
21777;SDS011;11050;52.222;20.916;2022-12-07T16:50:53;29.60;;;16.40;;
21777;SDS011;11050;52.222;20.916;2022-12-07T16:53:20;28.43;;;16.80;;
21777;SDS011;11050;52.222;20.916;2022-12-07T16:55:48;28.93;;;16.53;;
21777;SDS011;11050;52.222;20.916;2022-12-07T16:58:15;29.53;;;16.47;;